Skip Navigation Links
NOAA logo - Click to go to the NOAA homepage
NOAA's National Weather Service
Alaska Aviation Weather Unit
  NWS logo - Click to go to the NWS homepage
Left Navbar Graphic     08 AKDT = 16 GMT

   
NOAA is celebrating 200 years of science, service, and stewardship. Visit the NOAA 200th celebration Web site to learn more.
USA.gov is the U.S. Government's official Web portal to all Federal, state and local government Web resources and services.
Facebook
NWS on Facebook

Important Change Regarding the AAWU Web Presence

 

Over the last several months, the AAWU has been working to navigate its webpages to a nationally supported server. Security, as well as other needs, have necessitated the change.  In the process, we have made an effort to enhance the functionality of our website, as well as some of our products. As of June 20, 2017, aawu.arh.noaa.gov will be discontinued. The new AAWU web address is weather.gov/aawu. It is now live and will run in-parallel with the old site until it is discontinued. Please send any feedback or questions regarding the new webpages to nws.ar.aawu.webauthors@noaa.gov.  Thank you for your patience during this time of transition.
AAWU Home :: Display TAF Add Bookmark
TAF PADU 231146Z 2312/2412 20012KT P6SM -RA SCT015 OVC025
      TEMPO 2312/2315 5SM -RA BR BKN015 OVC025
     FM231500 19015G20KT 5SM -RA BR BKN015 OVC025
     FM240300 24012G20KT 6SM -SHRA BR BKN015 BKN025
     FM240600 26012G20KT P6SM -SHRA SCT020 BKN030=
SPECI PADU 231033Z AUTO 20006KT 10SM -RA BKN014 OVC024 08/05 A2998 RMK
     AO2 P0001=

METAR PADU 231056Z AUTO 17009KT 130V200 10SM -RA SCT021 BKN028
 OVC046 08/05 A2997 RMK AO2 SLP150 P0002 T00780050=

METAR PADU 231156Z AUTO 20008KT 10SM -RA BKN028 OVC034 08/05 A2996 RMK
     AO2 SLP147 P0002 60008 70015 T00830050 10083 20061 56014=

PADU 231226Z AUTO 21008KT 10SM -RA SCT030 BKN035 OVC070 08/05
     A2995 RMK AO2 P0000=

METAR PADU 231256Z AUTO 19006KT 10SM -RA BKN028 OVC035 08/05 A2995
 RMK AO2 SLP142 P0001 T00830050=

SPECI PADU 231339Z AUTO 17007KT 10SM -RA FEW024 BKN030 OVC035 08/05
     A2993 RMK AO2 P0002=

METAR PADU 231356Z 13008KT 10SM -RA OVC028 08/05 A2992 RMK AO2 SLP133 MH
     P0003 T00830050=

METAR PADU 231456Z 13008KT 10SM -RA OVC027 08/05 A2989 RMK AO2 SLP124 MH
     P0002 60006 T00830050 58023=

METAR PADU 231556Z 14009KT 10SM -RA OVC029 09/05 A2988 RMK AO2 SLP119 MH
     P0000 T00940050=


NOAA's National Weather Service
Alaska Aviation Weather Unit
6930 Sand Lake Road
Anchorage, AK 99502-1845
Disclaimer
Credits
Glossary
Privacy Policy
About Us
Career Opportunities
Contact AAWU Internet Services Site last modified: April, 17th 2012